Cleveland, Ohio
Current Conditions -  °F | °C
As of 10:53 AM on Friday 24 Oct 2014 (Local Time) from KBKL Reporting Station
Clear Clear  
Wind Chill: 53°   Ceiling: Unl
Heat Index: 53°   Visibility: 10mi
Dew Point: 42°   Wind: 8mph
Humidity: 66%   Direction: 240°WSW
Pressure: 30.09"   Gusts: NA
Location:  41.5°N, 81.69°W
Report Text: KBKL 241453Z 24007KT 10SM CLR 12/06 A3009 RMK AO2 SLP191 T01170056 50001
Loading
Personal Weather Stations






























Interactive Weather Map
Tropical Storm Tracking
New forecast layout! Learn more

10-Day Weather Forecast

Advertisements
Track Severe Weather on mobile